createdAt,value
2023-01-25T00:00:32.805Z,74.00
2023-01-25T00:03:00.332Z,73.90
2023-01-25T00:05:27.842Z,74.00
2023-01-25T00:07:55.354Z,74.40
2023-01-25T00:10:22.902Z,74.40
2023-01-25T00:12:50.404Z,74.20
2023-01-25T00:15:17.894Z,73.30
2023-01-25T00:17:45.404Z,73.60
2023-01-25T00:20:13.016Z,73.80
2023-01-25T00:22:40.601Z,73.40
2023-01-25T00:25:09.950Z,73.40
2023-01-25T00:27:38.359Z,73.50
2023-01-25T00:30:06.358Z,74.80
2023-01-25T00:32:48.942Z,74.50
2023-01-25T00:35:17.319Z,74.10
2023-01-25T00:37:47.323Z,73.30
2023-01-25T00:40:15.350Z,73.60
2023-01-25T00:42:42.880Z,74.20
2023-01-25T00:45:11.811Z,74.40
2023-01-25T00:47:40.506Z,74.10
2023-01-25T00:50:08.663Z,73.60
2023-01-25T00:52:39.450Z,73.70
2023-01-25T00:55:07.498Z,74.80
2023-01-25T00:57:35.585Z,74.10
2023-01-25T01:00:03.179Z,73.30
2023-01-25T01:02:32.351Z,73.10
2023-01-25T01:05:03.467Z,73.20
2023-01-25T01:07:31.066Z,73.10
2023-01-25T01:10:00.514Z,72.70
2023-01-25T01:12:28.430Z,72.70
2023-01-25T01:14:56.878Z,72.60
2023-01-25T01:17:25.152Z,72.50
2023-01-25T01:19:52.713Z,72.20
2023-01-25T01:22:21.148Z,71.50
2023-01-25T01:24:50.711Z,71.40
2023-01-25T01:27:18.780Z,69.20
2023-01-25T01:29:52.961Z,70.10
2023-01-25T01:32:20.855Z,70.40
2023-01-25T01:34:48.632Z,70.10
2023-01-25T01:37:16.461Z,70.10
2023-01-25T01:40:01.299Z,69.60
2023-01-25T01:46:13.452Z,69.60
2023-01-25T01:48:45.429Z,67.70
2023-01-25T01:51:13.024Z,67.90
2023-01-25T01:53:41.574Z,68.60
2023-01-25T01:56:14.019Z,68.00
2023-01-25T01:58:43.103Z,67.10
2023-01-25T02:01:10.943Z,66.00
2023-01-25T02:03:40.267Z,67.80
2023-01-25T02:06:16.590Z,67.80
2023-01-25T02:08:47.000Z,68.00
2023-01-25T02:11:15.350Z,64.90
2023-01-25T02:13:43.345Z,64.00
2023-01-25T02:16:17.551Z,66.50
2023-01-25T02:18:45.280Z,66.40
2023-01-25T02:25:32.622Z,66.50
2023-01-25T02:28:12.675Z,65.80
2023-01-25T02:30:42.302Z,63.80
2023-01-25T02:33:11.400Z,63.70
2023-01-25T02:35:56.736Z,63.80
2023-01-25T02:38:27.347Z,62.40
2023-01-25T02:41:25.049Z,63.70
2023-01-25T02:43:56.120Z,64.90
2023-01-25T02:46:45.202Z,64.50
2023-01-25T02:50:03.745Z,64.80
2023-01-25T02:52:34.079Z,62.30
2023-01-25T02:55:02.288Z,61.70
2023-01-25T02:57:40.249Z,61.80
2023-01-25T03:00:08.564Z,60.40
2023-01-25T03:02:36.211Z,59.60
2023-01-25T03:07:57.795Z,63.00
2023-01-25T03:10:26.499Z,63.60
2023-01-25T03:12:56.634Z,63.40
2023-01-25T03:15:27.541Z,60.80
2023-01-25T03:17:57.006Z,62.50
2023-01-25T03:20:33.419Z,63.20
2023-01-25T03:23:01.010Z,63.30
2023-01-25T03:25:28.785Z,62.20
2023-01-25T03:27:57.363Z,60.60
2023-01-25T03:30:28.290Z,61.40
2023-01-25T03:32:58.579Z,61.70
2023-01-25T03:35:26.435Z,62.60
2023-01-25T03:37:55.159Z,63.00
2023-01-25T03:40:24.001Z,62.10
2023-01-25T03:42:53.731Z,58.70
2023-01-25T03:45:22.047Z,60.10
2023-01-25T03:47:50.120Z,59.90
2023-01-25T03:50:18.060Z,59.50
2023-01-25T03:52:51.045Z,60.30
2023-01-25T03:55:19.537Z,60.00
2023-01-25T03:57:50.200Z,61.10
2023-01-25T04:00:23.307Z,58.10
2023-01-25T04:03:06.183Z,59.50
2023-01-25T04:05:34.334Z,59.10
2023-01-25T04:08:02.041Z,60.90
2023-01-25T04:10:30.025Z,61.50
2023-01-25T04:12:58.947Z,60.90
2023-01-25T04:15:27.826Z,60.60
2023-01-25T04:17:58.727Z,61.40
2023-01-25T04:20:28.300Z,59.60
2023-01-25T04:22:58.892Z,59.70
2023-01-25T04:25:28.439Z,58.50
2023-01-25T04:31:09.359Z,57.10
2023-01-25T04:34:21.740Z,57.20
2023-01-25T04:37:46.676Z,57.80
2023-01-25T04:40:27.988Z,58.70
2023-01-25T04:45:58.192Z,60.50
2023-01-25T04:48:39.532Z,60.10
2023-01-25T04:54:21.140Z,55.50
2023-01-25T04:56:55.858Z,57.70
2023-01-25T04:59:24.705Z,56.70
2023-01-25T05:01:53.792Z,55.70
2023-01-25T05:04:23.491Z,56.80
2023-01-25T05:06:51.421Z,56.30
2023-01-25T05:09:24.518Z,56.50
2023-01-25T05:11:52.640Z,57.70
2023-01-25T05:14:23.586Z,59.00
2023-01-25T05:16:51.487Z,59.10
2023-01-25T05:19:26.547Z,59.10
2023-01-25T05:22:08.628Z,55.80
2023-01-25T05:24:39.885Z,57.70
2023-01-25T05:27:09.227Z,54.90
2023-01-25T05:29:39.099Z,55.80
2023-01-25T05:32:17.396Z,57.80
2023-01-25T05:34:45.608Z,57.30
2023-01-25T05:37:14.737Z,56.30
2023-01-25T05:39:42.817Z,55.90
2023-01-25T05:42:13.165Z,55.30
2023-01-25T05:44:42.021Z,55.50
2023-01-25T05:47:16.021Z,57.90
2023-01-25T05:49:44.820Z,58.20
2023-01-25T05:52:16.862Z,57.50
2023-01-25T05:54:44.600Z,55.10
2023-01-25T05:57:14.057Z,56.20
2023-01-25T05:59:41.634Z,57.50
2023-01-25T06:02:09.410Z,56.00
2023-01-25T06:04:37.901Z,57.70
2023-01-25T06:07:05.440Z,57.40
2023-01-25T06:09:33.292Z,58.20
2023-01-25T06:12:01.785Z,58.00
2023-01-25T06:14:29.381Z,57.60
2023-01-25T06:16:57.721Z,56.30
2023-01-25T06:19:25.348Z,55.40
2023-01-25T06:21:53.951Z,56.90
2023-01-25T06:24:21.694Z,56.30
2023-01-25T06:26:49.430Z,56.00
2023-01-25T06:29:20.360Z,56.00
2023-01-25T06:31:48.991Z,56.60
2023-01-25T06:34:17.805Z,56.60
2023-01-25T06:36:46.839Z,56.00
2023-01-25T06:39:14.933Z,55.30
2023-01-25T06:41:43.001Z,55.00
2023-01-25T06:44:10.558Z,55.00
2023-01-25T06:46:39.879Z,55.10
2023-01-25T06:49:08.367Z,56.00
2023-01-25T06:51:36.332Z,54.50
2023-01-25T06:54:07.315Z,55.90
2023-01-25T06:56:34.951Z,54.30
2023-01-25T06:59:02.575Z,55.00
2023-01-25T07:01:30.740Z,56.00
2023-01-25T07:04:00.156Z,54.50
2023-01-25T07:06:32.555Z,54.30
2023-01-25T07:09:06.893Z,55.30
2023-01-25T07:11:34.624Z,55.60
2023-01-25T07:14:03.577Z,55.80
2023-01-25T07:16:37.063Z,55.30
2023-01-25T07:19:05.305Z,55.80
2023-01-25T07:21:32.843Z,55.70
2023-01-25T07:24:03.283Z,55.10
2023-01-25T07:26:32.544Z,57.00
2023-01-25T07:29:00.444Z,56.60
2023-01-25T07:31:28.941Z,54.60
2023-01-25T07:33:57.393Z,53.90
2023-01-25T07:36:25.186Z,57.10
2023-01-25T07:38:56.829Z,55.50
2023-01-25T07:41:25.303Z,55.50
2023-01-25T07:43:53.626Z,54.30
2023-01-25T07:46:21.744Z,55.60
2023-01-25T07:48:50.786Z,55.70
2023-01-25T07:51:27.022Z,56.20
2023-01-25T07:54:05.587Z,56.10
2023-01-25T07:56:35.509Z,56.10
2023-01-25T07:59:07.835Z,56.60
2023-01-25T08:01:37.576Z,56.80
2023-01-25T08:04:06.234Z,54.00
2023-01-25T08:06:39.680Z,52.90
2023-01-25T08:09:20.214Z,53.40
2023-01-25T08:11:50.772Z,50.90
2023-01-25T08:14:18.443Z,53.40
2023-01-25T08:16:46.317Z,54.00
2023-01-25T08:19:15.440Z,55.00
2023-01-25T08:21:43.096Z,54.80
2023-01-25T08:24:17.586Z,51.80
2023-01-25T08:26:46.971Z,53.80
2023-01-25T08:29:14.731Z,54.70
2023-01-25T08:31:44.219Z,53.90
2023-01-25T08:34:12.712Z,54.70
2023-01-25T08:39:28.380Z,54.70
2023-01-25T08:41:57.630Z,55.60
2023-01-25T08:44:28.892Z,54.90
2023-01-25T08:46:57.398Z,52.50
2023-01-25T08:49:25.353Z,52.90
2023-01-25T08:51:53.300Z,55.50
2023-01-25T08:54:24.657Z,55.90
2023-01-25T08:56:52.519Z,55.00
2023-01-25T08:59:23.217Z,53.40
2023-01-25T09:01:51.141Z,53.90
2023-01-25T09:04:18.864Z,53.60
2023-01-25T09:06:47.188Z,53.50
2023-01-25T09:09:14.863Z,54.60
2023-01-25T09:11:45.114Z,53.60
2023-01-25T09:14:13.124Z,55.50
2023-01-25T09:16:41.297Z,52.70
2023-01-25T09:19:08.876Z,53.80
2023-01-25T09:21:38.991Z,54.10
2023-01-25T09:24:08.085Z,54.30
2023-01-25T09:26:38.699Z,53.80
2023-01-25T09:29:08.430Z,53.60
2023-01-25T09:31:38.391Z,52.60
2023-01-25T09:34:06.184Z,53.10
2023-01-25T09:36:34.936Z,53.30
2023-01-25T09:39:02.565Z,54.10
2023-01-25T09:41:45.464Z,53.00
2023-01-25T09:44:31.803Z,54.60
2023-01-25T09:47:02.317Z,54.90
2023-01-25T09:49:31.415Z,54.30
2023-01-25T09:52:17.634Z,54.00
2023-01-25T09:54:49.807Z,54.70
2023-01-25T09:57:22.849Z,55.00
2023-01-25T09:59:52.518Z,55.30
2023-01-25T10:02:38.896Z,55.00
2023-01-25T10:05:09.913Z,54.90
2023-01-25T10:07:41.484Z,55.00
2023-01-25T10:10:15.027Z,55.00
2023-01-25T10:12:42.636Z,55.30
2023-01-25T10:15:24.562Z,55.70
2023-01-25T10:18:11.351Z,54.30
2023-01-25T10:20:43.399Z,54.60
2023-01-25T10:23:14.031Z,54.80
2023-01-25T10:25:46.947Z,54.80
2023-01-25T10:28:34.548Z,54.90
2023-01-25T10:31:03.578Z,55.30
2023-01-25T10:33:35.134Z,54.60
2023-01-25T10:36:06.252Z,54.40
2023-01-25T10:38:40.010Z,54.50
2023-01-25T10:41:16.361Z,54.70
2023-01-25T10:43:44.186Z,54.80
2023-01-25T10:46:26.681Z,55.10
2023-01-25T10:48:54.548Z,55.30
2023-01-25T10:51:32.807Z,55.00
2023-01-25T10:54:02.777Z,55.30
2023-01-25T10:56:33.661Z,56.20
2023-01-25T10:59:27.164Z,55.00
2023-01-25T11:01:55.268Z,55.40
2023-01-25T11:04:36.338Z,55.70
2023-01-25T11:07:08.076Z,55.40
2023-01-25T11:09:37.404Z,55.90
2023-01-25T11:12:05.977Z,57.10
2023-01-25T11:14:34.150Z,56.60
2023-01-25T11:17:03.758Z,57.30
2023-01-25T11:19:35.270Z,57.10
2023-01-25T11:22:05.448Z,57.40
2023-01-25T11:24:34.924Z,57.40
2023-01-25T11:27:22.631Z,57.60
2023-01-25T11:30:06.540Z,57.80
2023-01-25T11:32:34.155Z,58.00
2023-01-25T11:35:01.803Z,58.10
2023-01-25T11:37:43.741Z,58.40
2023-01-25T11:40:30.618Z,58.50
2023-01-25T11:43:07.540Z,58.50
2023-01-25T11:45:42.273Z,58.50
2023-01-25T11:48:16.899Z,58.50
2023-01-25T11:50:53.943Z,58.50
2023-01-25T11:53:27.459Z,58.60
2023-01-25T11:56:14.037Z,58.70
2023-01-25T11:58:50.925Z,58.80
2023-01-25T12:01:33.468Z,59.00
2023-01-25T12:04:10.334Z,59.10
2023-01-25T12:06:49.671Z,59.00
2023-01-25T12:09:30.653Z,59.00
2023-01-25T12:12:00.999Z,59.00
2023-01-25T12:14:47.276Z,58.90
2023-01-25T12:17:24.103Z,59.10
2023-01-25T12:20:14.919Z,59.00
2023-01-25T12:22:42.433Z,59.60
2023-01-25T12:25:25.557Z,59.20
2023-01-25T12:28:15.766Z,59.20
2023-01-25T12:30:43.501Z,59.80
2023-01-25T12:33:23.437Z,59.20
2023-01-25T12:36:09.431Z,59.30
2023-01-25T12:38:41.507Z,59.40
2023-01-25T12:41:15.277Z,59.40
2023-01-25T12:43:47.104Z,59.50
2023-01-25T12:46:22.417Z,59.70
2023-01-25T12:48:52.766Z,59.80
2023-01-25T12:51:22.156Z,59.90
2023-01-25T12:53:52.071Z,60.00
2023-01-25T12:56:44.086Z,60.10
2023-01-25T12:59:14.716Z,60.20
2023-01-25T13:02:12.310Z,60.30
2023-01-25T13:04:47.404Z,60.40
2023-01-25T13:07:43.889Z,60.60
2023-01-25T13:10:40.547Z,60.40
2023-01-25T13:13:27.633Z,60.40
2023-01-25T13:15:55.966Z,60.50
2023-01-25T13:18:29.780Z,60.60
2023-01-25T13:20:58.692Z,60.70
2023-01-25T13:23:33.796Z,60.90
2023-01-25T13:26:20.315Z,60.80
2023-01-25T13:28:48.947Z,61.00
2023-01-25T13:31:50.706Z,61.20
2023-01-25T13:34:40.357Z,61.30
2023-01-25T13:37:21.563Z,61.30
2023-01-25T13:39:51.360Z,61.40
2023-01-25T13:42:22.833Z,61.60
2023-01-25T13:44:51.928Z,61.60
2023-01-25T13:47:22.540Z,61.70
2023-01-25T13:49:56.723Z,61.80
2023-01-25T13:52:25.346Z,61.90
2023-01-25T13:54:55.138Z,62.00
2023-01-25T13:57:28.457Z,62.20
2023-01-25T14:00:09.839Z,62.30
2023-01-25T14:02:40.480Z,62.50
2023-01-25T14:05:18.174Z,62.60
2023-01-25T14:07:47.479Z,62.80
2023-01-25T14:10:16.563Z,63.50
2023-01-25T14:12:45.449Z,63.30
2023-01-25T14:15:18.937Z,63.30
2023-01-25T14:17:46.659Z,63.50
2023-01-25T14:20:21.685Z,63.70
2023-01-25T14:22:50.115Z,63.70
2023-01-25T14:25:22.647Z,63.80
2023-01-25T14:27:57.210Z,64.40
2023-01-25T14:30:29.052Z,64.20
2023-01-25T14:32:58.742Z,65.70
2023-01-25T14:35:43.159Z,65.40
2023-01-25T14:38:23.354Z,65.20
2023-01-25T14:40:52.435Z,66.40
2023-01-25T14:43:20.157Z,65.70
2023-01-25T14:45:47.757Z,66.40
2023-01-25T14:48:45.338Z,66.00
2023-01-25T14:51:15.194Z,67.40
2023-01-25T14:53:44.954Z,66.30
2023-01-25T14:56:19.239Z,69.60
2023-01-25T14:58:50.984Z,67.50
2023-01-25T15:01:33.404Z,68.90
2023-01-25T15:04:01.226Z,69.10
2023-01-25T15:06:28.818Z,67.90
2023-01-25T15:08:56.390Z,70.00
2023-01-25T15:11:36.551Z,67.80
2023-01-25T15:14:08.485Z,67.80
2023-01-25T15:16:37.630Z,70.50
2023-01-25T15:19:21.083Z,69.70
2023-01-25T15:21:48.904Z,69.60
2023-01-25T15:24:17.045Z,69.00
2023-01-25T15:26:49.375Z,69.50
2023-01-25T15:29:20.604Z,70.10
2023-01-25T15:31:49.970Z,70.80
2023-01-25T15:34:20.986Z,69.80
2023-01-25T15:36:48.926Z,68.70
2023-01-25T15:39:17.797Z,70.70
2023-01-25T15:41:45.927Z,70.00
2023-01-25T15:44:14.124Z,69.10
2023-01-25T15:46:43.345Z,70.00
2023-01-25T15:49:14.204Z,69.10
2023-01-25T15:51:41.746Z,69.50
2023-01-25T15:54:09.549Z,69.00
2023-01-25T15:56:38.146Z,71.60
2023-01-25T15:59:09.809Z,69.70
2023-01-25T16:01:38.284Z,69.40
2023-01-25T16:04:06.760Z,69.70
2023-01-25T16:06:41.684Z,70.20
2023-01-25T16:09:25.653Z,69.70
2023-01-25T16:11:54.717Z,69.60
2023-01-25T16:14:23.945Z,69.50
2023-01-25T16:16:53.156Z,70.40
2023-01-25T16:19:23.036Z,70.60
2023-01-25T16:21:50.801Z,70.00
2023-01-25T16:24:19.888Z,70.50
2023-01-25T16:26:52.861Z,70.00
2023-01-25T16:29:20.481Z,70.00
2023-01-25T16:31:48.948Z,70.00
2023-01-25T16:34:17.577Z,69.80
2023-01-25T16:36:50.513Z,70.10
2023-01-25T16:39:20.238Z,70.00
2023-01-25T16:41:48.002Z,70.00
2023-01-25T16:44:16.323Z,69.50
2023-01-25T16:46:44.208Z,69.50
2023-01-25T16:49:16.643Z,69.60
2023-01-25T16:51:46.682Z,70.30
2023-01-25T16:54:14.461Z,71.00
2023-01-25T16:56:42.019Z,71.20
2023-01-25T16:59:10.770Z,71.00
2023-01-25T17:01:40.291Z,72.00
2023-01-25T17:04:08.178Z,71.20
2023-01-25T17:06:36.924Z,71.00
2023-01-25T17:09:20.478Z,72.00
2023-01-25T17:11:49.392Z,70.40
2023-01-25T17:14:19.066Z,70.40
2023-01-25T17:16:48.632Z,69.70
2023-01-25T17:19:17.198Z,69.20
2023-01-25T17:21:46.155Z,69.20
2023-01-25T17:24:14.954Z,69.20
2023-01-25T17:26:43.370Z,69.10
2023-01-25T17:29:11.951Z,69.10
2023-01-25T17:31:40.873Z,69.00
2023-01-25T17:34:09.024Z,69.10
2023-01-25T17:36:37.348Z,69.30
2023-01-25T17:39:07.130Z,69.50
2023-01-25T17:41:34.760Z,69.20
2023-01-25T17:44:03.294Z,69.30
2023-01-25T17:46:34.148Z,69.40
2023-01-25T17:49:03.201Z,69.60
2023-01-25T17:51:31.838Z,70.00
2023-01-25T17:53:59.834Z,70.20
2023-01-25T17:56:27.378Z,69.60
2023-01-25T17:58:55.157Z,69.60
2023-01-25T18:01:28.609Z,69.40
2023-01-25T18:03:56.814Z,69.50
2023-01-25T18:06:25.713Z,69.40
2023-01-25T18:08:54.647Z,69.70
2023-01-25T18:11:26.230Z,70.20
2023-01-25T18:13:58.070Z,71.40
2023-01-25T18:16:26.627Z,70.40
2023-01-25T18:18:55.483Z,70.70
2023-01-25T18:21:26.657Z,70.00
2023-01-25T18:24:06.286Z,70.10
2023-01-25T18:26:35.742Z,69.80
2023-01-25T18:29:20.349Z,70.00
2023-01-25T18:31:49.061Z,70.70
2023-01-25T18:34:16.644Z,70.10
2023-01-25T18:36:44.941Z,70.00
2023-01-25T18:39:12.421Z,70.10
2023-01-25T18:41:39.884Z,70.30
2023-01-25T18:44:07.464Z,70.70
2023-01-25T18:46:35.887Z,70.30
2023-01-25T18:49:03.379Z,70.20
2023-01-25T18:51:30.997Z,70.70
2023-01-25T18:53:58.494Z,70.30
2023-01-25T18:56:27.579Z,70.30
2023-01-25T18:58:59.232Z,70.40
2023-01-25T19:01:26.792Z,70.40
2023-01-25T19:03:54.361Z,70.40
2023-01-25T19:06:21.867Z,70.50
2023-01-25T19:08:54.601Z,70.50
2023-01-25T19:11:23.186Z,70.70
2023-01-25T19:13:51.123Z,70.50
2023-01-25T19:16:21.056Z,70.90
2023-01-25T19:18:50.946Z,71.50
2023-01-25T19:21:21.131Z,71.70
2023-01-25T19:23:49.026Z,71.50
2023-01-25T19:26:18.471Z,71.80
2023-01-25T19:28:47.440Z,72.10
2023-01-25T19:31:16.591Z,72.10
2023-01-25T19:33:45.626Z,72.20
2023-01-25T19:36:16.608Z,72.00
2023-01-25T19:38:46.505Z,71.00
2023-01-25T19:41:15.659Z,70.90
2023-01-25T19:43:43.841Z,70.80
2023-01-25T19:46:11.408Z,70.90
2023-01-25T19:48:39.770Z,71.00
2023-01-25T19:51:14.670Z,70.90
2023-01-25T19:53:49.798Z,70.90
2023-01-25T19:56:17.998Z,71.00
2023-01-25T19:58:47.311Z,71.70
2023-01-25T20:01:15.045Z,71.20
2023-01-25T20:03:42.725Z,71.30
2023-01-25T20:06:11.193Z,71.40
2023-01-25T20:08:39.502Z,71.30
2023-01-25T20:11:18.723Z,71.50
2023-01-25T20:13:46.788Z,71.90
2023-01-25T20:16:17.294Z,71.70
2023-01-25T20:18:45.668Z,72.00
2023-01-25T20:21:14.487Z,72.30
2023-01-25T20:23:43.298Z,72.40
2023-01-25T20:26:15.344Z,72.20
2023-01-25T20:28:44.457Z,72.20
2023-01-25T20:31:19.552Z,73.40
2023-01-25T20:33:47.285Z,73.80
2023-01-25T20:36:14.935Z,72.60
2023-01-25T20:38:42.748Z,72.70
2023-01-25T20:41:14.655Z,72.20
2023-01-25T20:43:49.286Z,71.80
2023-01-25T20:46:17.173Z,71.90
2023-01-25T20:48:45.061Z,72.40
2023-01-25T20:51:14.836Z,72.70
2023-01-25T20:53:42.701Z,73.90
2023-01-25T20:56:10.469Z,73.00
2023-01-25T20:58:38.190Z,73.00
2023-01-25T21:01:12.941Z,72.80
2023-01-25T21:03:40.788Z,72.50
2023-01-25T21:06:08.757Z,72.50
2023-01-25T21:08:37.166Z,72.30
2023-01-25T21:11:05.335Z,72.30
2023-01-25T21:13:32.991Z,72.50
2023-01-25T21:16:05.203Z,72.30
2023-01-25T21:18:35.769Z,72.70
2023-01-25T21:21:05.271Z,73.20
2023-01-25T21:23:34.365Z,72.90
2023-01-25T21:26:03.337Z,73.20
2023-01-25T21:28:30.923Z,73.00
2023-01-25T21:30:59.857Z,72.80
2023-01-25T21:33:27.391Z,72.90
2023-01-25T21:35:55.957Z,73.00
2023-01-25T21:38:25.386Z,72.80
2023-01-25T21:40:53.007Z,72.80
2023-01-25T21:43:20.470Z,72.90
2023-01-25T21:46:06.948Z,73.00
2023-01-25T21:48:52.526Z,72.90
2023-01-25T21:51:39.844Z,73.00
2023-01-25T21:54:07.345Z,73.10
2023-01-25T21:56:35.089Z,73.40
2023-01-25T21:59:02.744Z,73.40
2023-01-25T22:01:30.516Z,73.70
2023-01-25T22:03:58.068Z,74.20
2023-01-25T22:06:25.620Z,73.80
2023-01-25T22:08:54.089Z,74.40
2023-01-25T22:11:21.796Z,75.70
2023-01-25T22:13:49.326Z,76.00
2023-01-25T22:16:17.683Z,75.80
2023-01-25T22:18:46.049Z,75.00
2023-01-25T22:21:16.845Z,74.80
2023-01-25T22:23:45.357Z,75.40
2023-01-25T22:26:14.848Z,74.80
2023-01-25T22:28:48.580Z,75.70
2023-01-25T22:31:17.697Z,75.00
2023-01-25T22:33:46.025Z,75.90
2023-01-25T22:36:14.327Z,76.00
2023-01-25T22:38:42.105Z,75.30
2023-01-25T22:41:10.872Z,75.10
2023-01-25T22:43:38.767Z,75.10
2023-01-25T22:46:07.861Z,75.30
2023-01-25T22:48:35.427Z,75.40
2023-01-25T22:51:03.995Z,75.20
2023-01-25T22:53:31.670Z,77.50
2023-01-25T22:56:02.840Z,76.60
2023-01-25T22:58:31.112Z,77.40
2023-01-25T23:00:59.569Z,76.30
2023-01-25T23:03:27.180Z,76.20
2023-01-25T23:06:01.711Z,76.20
2023-01-25T23:08:32.784Z,77.40
2023-01-25T23:11:01.721Z,77.40
2023-01-25T23:13:29.212Z,79.10
2023-01-25T23:15:56.801Z,78.60
2023-01-25T23:18:42.683Z,77.70
2023-01-25T23:21:10.200Z,76.60
2023-01-25T23:23:37.849Z,77.40
2023-01-25T23:26:06.227Z,76.80
2023-01-25T23:28:33.824Z,77.20
2023-01-25T23:31:18.103Z,76.50
2023-01-25T23:33:46.437Z,76.80
2023-01-25T23:36:15.091Z,76.30
2023-01-25T23:38:44.200Z,76.50
2023-01-25T23:41:12.526Z,77.80
2023-01-25T23:43:40.254Z,76.90
2023-01-25T23:46:08.143Z,76.70
2023-01-25T23:48:35.775Z,77.20
2023-01-25T23:51:03.412Z,76.90
2023-01-25T23:53:32.653Z,77.60
2023-01-25T23:56:06.204Z,78.20
2023-01-25T23:58:35.043Z,77.30
